Flight Track Log - Related Links

Times and Time Zones

All times are in EDT time to prevent confusion due to time zone crossing. See the THY2 flight status page for this flight to view local times or setup timezone preferences in your user account.

Time Position Orientation Groundspeed Altitude Reporting Facility
EDT Latitude Longitude Course Direction KTS MPH feet Rate Location/Type
Fri 08:02:31 PM 40.6140 -73.7920 210° Southwest 171 197 1,100  Level FlightAware ADS-B
Fri 08:02:56 PM 40.5970 -73.8080 216° Southwest 198 228 1,600 982 Climbing FlightAware ADS-B
Fri 08:03:26 PM 40.5710 -73.8300 213° Southwest 236 272 2,000 1,200 Climbing FlightAware ADS-B
Fri 08:03:46 PM 40.5500 -73.8400 200° South 248 285 2,600 2,133 Climbing FlightAware ADS-B
Fri 08:04:11 PM 40.5230 -73.8250 157° South 261 300 3,600 2,250 Climbing FlightAware ADS-B
Fri 08:04:26 PM 40.5140 -73.8050 121° Southeast 268 308 4,100 1,950 Climbing FlightAware ADS-B
Fri 08:04:51 PM 40.5010 -73.7660 114° Southeast 276 318 4,900 1,350 Climbing FlightAware ADS-B
Fri 08:05:06 PM 40.4940 -73.7430 112° Southeast 279 321 5,000 286 Climbing FlightAware ADS-B
Fri 08:05:12 PM 40.4894 -73.7302 115° Southeast 281 323 5,000  Level FlightAware ADS-B
Fri 08:05:29 PM 40.4804 -73.7028 113° Southeast 281 323 5,000  Level FlightAware ADS-B
Fri 08:05:44 PM 40.4729 -73.6797 113° Southeast 280 322 5,000  Level FlightAware ADS-B
Fri 08:06:02 PM 40.4637 -73.6513 113° Southeast 280 322 5,000  Level FlightAware ADS-B
Fri 08:06:14 PM 40.4580 -73.6335 113° Southeast 279 321 5,000  Level FlightAware ADS-B
Fri 08:06:22 PM 40.4550 -73.6198 106° East 282 325 5,000  Level FlightAware ADS-B
Fri 08:06:30 PM 40.4545 -73.6067 93° East 285 328 5,000  Level FlightAware ADS-B
Fri 08:06:35 PM 40.4553 -73.5970 84° East 286 329 5,000  Level FlightAware ADS-B
Fri 08:06:39 PM 40.4564 -73.5905 77° East 287 330 5,000  Level FlightAware ADS-B
Fri 08:06:58 PM 40.4628 -73.5595 75° East 289 333 5,000  Level FlightAware ADS-B
Fri 08:07:13 PM 40.4682 -73.5336 75° East 287 330 5,000  Level FlightAware ADS-B
Fri 08:07:35 PM 40.4757 -73.4972 75° East 287 330 5,000 133 Level FlightAware ADS-B
Fri 08:07:58 PM 40.4833 -73.4586 75° East 291 335 5,100 1,231 Climbing FlightAware ADS-B
Fri 08:08:14 PM 40.4878 -73.4306 78° East 292 336 5,800 2,438 Climbing FlightAware ADS-B
Fri 08:08:30 PM 40.4923 -73.4020 78° East 294 338 6,400 2,270 Climbing FlightAware ADS-B
Fri 08:08:51 PM 40.4984 -73.3660 77° East 299 344 7,200 2,270 Climbing FlightAware ADS-B
Fri 08:09:07 PM 40.5032 -73.3376 77° East 300 345 7,800 2,323 Climbing FlightAware ADS-B
Fri 08:09:22 PM 40.5080 -73.3097 77° East 303 349 8,400 2,170 Climbing FlightAware ADS-B
Fri 08:09:54 PM 40.5182 -73.2514 77° East 312 359 9,500 1,853 Climbing FlightAware ADS-B
Fri 08:10:30 PM 40.5298 -73.1846 77° East 326 375 10,500 1,378 Climbing FlightAware ADS-B
Fri 08:11:08 PM 40.5437 -73.1035 77° East 366 421 11,200 1,231 Climbing FlightAware ADS-B
Fri 08:11:48 PM 40.5602 -73.0124 77° East 399 459 12,100 2,222 Climbing FlightAware ADS-B
Fri 08:12:29 PM 40.5842 -72.9144 72° East 417 480 14,200 2,947 Climbing FlightAware ADS-B
Fri 08:12:45 PM 40.5976 -72.8771 65° Northeast 422 486 14,900 2,769 Climbing FlightAware ADS-B
Fri 08:12:55 PM 40.6083 -72.8562 56° Northeast 422 486 15,400 3,000 Climbing FlightAware ADS-B
Fri 08:13:03 PM 40.6191 -72.8393 50° Northeast 423 487 15,800 2,714 Climbing FlightAware ADS-B
Fri 08:13:37 PM 40.6710 -72.7837 39° Northeast 425 489 17,300 2,435 Climbing FlightAware ADS-B
Fri 08:14:12 PM 40.7276 -72.7287 36° Northeast 437 503 18,600 2,219 Climbing FlightAware ADS-B
Fri 08:14:50 PM 40.7912 -72.6671 36° Northeast 453 521 20,000 2,143 Climbing FlightAware ADS-B
Fri 08:15:22 PM 40.8447 -72.6148 36° Northeast 464 534 21,100 2,095 Climbing FlightAware ADS-B
Fri 08:15:53 PM 40.8994 -72.5610 37° Northeast 470 541 22,200 2,093 Climbing FlightAware ADS-B
Fri 08:16:48 PM 40.9953 -72.4663 37° Northeast 479 551 24,100 1,922 Climbing FlightAware ADS-B
Fri 08:17:36 PM 41.0720 -72.3910 36° Northeast 487 560 25,500 1,881 Climbing FlightAware ADS-B
Fri 08:17:55 PM 41.1167 -72.3462 37° Northeast 481 554 26,200 1,835 Climbing FlightAware ADS-B
Fri 08:19:01 PM 41.2330 -72.2300 37° Northeast 504 580 28,100 1,688 Climbing FlightAware ADS-B
Fri 08:19:31 PM 41.2860 -72.1780 36° Northeast 505 581 28,900 1,835 Climbing FlightAware ADS-B
Fri 08:20:26 PM 41.3860 -72.0780 37° Northeast 504 580 30,700 1,895 Climbing FlightAware ADS-B
Fri 08:21:06 PM 41.4640 -71.9990 37° Northeast 501 577 31,900 1,624 Climbing FlightAware ADS-B
Fri 08:21:51 PM 41.5410 -71.9210 37° Northeast 499 574 33,000 776 Climbing FlightAware ADS-B
Fri 08:22:31 PM 41.6120 -71.8500 37° Northeast 499 574 33,000  Level FlightAware ADS-B
Fri 08:23:11 PM 41.6920 -71.7690 37° Northeast 500 575 33,000  Level FlightAware ADS-B
Fri 08:23:56 PM 41.7760 -71.6830 37° Northeast 498 573 33,000  Level FlightAware ADS-B
Fri 08:24:36 PM 41.8500 -71.6080 37° Northeast 495 570 33,000  Level FlightAware ADS-B
Fri 08:25:21 PM 41.9360 -71.5200 37° Northeast 494 568 33,000  Level FlightAware ADS-B
Fri 08:26:01 PM 42.0080 -71.4470 37° Northeast 495 570 33,000  Level FlightAware ADS-B
Fri 08:26:41 PM 42.0810 -71.3710 38° Northeast 497 572 33,000  Level FlightAware ADS-B
Fri 08:27:26 PM 42.1630 -71.2860 38° Northeast 496 571 33,000  Level FlightAware ADS-B
Fri 08:28:06 PM 42.2340 -71.2120 38° Northeast 495 570 33,000  Level FlightAware ADS-B
Fri 08:28:51 PM 42.3150 -71.1270 38° Northeast 495 570 33,000  Level FlightAware ADS-B
Fri 08:29:21 PM 42.3710 -71.0680 38° Northeast 495 570 33,000  Level FlightAware ADS-B
Fri 08:30:11 PM 42.4620 -70.9730 38° Northeast 495 570 33,000  Level FlightAware ADS-B
Fri 08:30:56 PM 42.5410 -70.8890 38° Northeast 495 570 33,000  Level FlightAware ADS-B
Fri 08:31:36 PM 42.6140 -70.8110 38° Northeast 494 568 33,000  Level FlightAware ADS-B
Fri 08:32:16 PM 42.6870 -70.7340 38° Northeast 494 568 33,000  Level FlightAware ADS-B
Fri 08:33:01 PM 42.7700 -70.6460 38° Northeast 494 568 33,000  Level FlightAware ADS-B
Fri 08:33:41 PM 42.8410 -70.5700 38° Northeast 493 567 33,000  Level FlightAware ADS-B
Fri 08:34:26 PM 42.9190 -70.4860 38° Northeast 492 566 33,000  Level FlightAware ADS-B
Fri 08:35:06 PM 42.9910 -70.4080 38° Northeast 494 568 33,000  Level FlightAware ADS-B
Fri 08:35:46 PM 43.0630 -70.3310 38° Northeast 495 570 33,000  Level FlightAware ADS-B
Fri 08:36:31 PM 43.1430 -70.2440 38° Northeast 493 567 33,000  Level FlightAware ADS-B
Fri 08:37:11 PM 43.2160 -70.1640 39° Northeast 493 567 33,000  Level FlightAware ADS-B
Fri 08:37:56 PM 43.2880 -70.0860 38° Northeast 494 568 33,000  Level FlightAware ADS-B
Fri 08:38:36 PM 43.3600 -70.0070 39° Northeast 494 568 33,000  Level FlightAware ADS-B
Fri 08:39:21 PM 43.4400 -69.9200 38° Northeast 493 567 33,000  Level FlightAware ADS-B
Fri 08:40:01 PM 43.5080 -69.8450 39° Northeast 495 570 33,000  Level FlightAware ADS-B
Fri 08:40:41 PM 43.5790 -69.7660 39° Northeast 494 568 33,000  Level FlightAware ADS-B
Fri 08:41:26 PM 43.6660 -69.6690 39° Northeast 497 572 33,000  Level FlightAware ADS-B
Fri 08:42:06 PM 43.7400 -69.5870 39° Northeast 497 572 33,000  Level FlightAware ADS-B
Fri 08:42:51 PM 43.8240 -69.4940 39° Northeast 497 572 33,000  Level FlightAware ADS-B
Fri 08:43:31 PM 43.8950 -69.4140 39° Northeast 499 574 33,000  Level FlightAware ADS-B
Fri 08:44:11 PM 43.9660 -69.3340 39° Northeast 500 575 33,000  Level FlightAware ADS-B
Fri 08:44:56 PM 44.0460 -69.2440 39° Northeast 500 575 33,000  Level FlightAware ADS-B
Fri 08:45:36 PM 44.1170 -69.1640 39° Northeast 498 573 33,000  Level FlightAware ADS-B
Fri 08:46:21 PM 44.2000 -69.0700 39° Northeast 497 572 33,000  Level FlightAware ADS-B
Fri 08:47:01 PM 44.2710 -68.9890 39° Northeast 496 571 33,000  Level FlightAware ADS-B
Fri 08:47:56 PM 44.3660 -68.8810 39° Northeast 495 570 33,000  Level FlightAware ADS-B
Fri 08:48:36 PM 44.4370 -68.7990 39° Northeast 495 570 33,000  Level FlightAware ADS-B
Fri 08:49:21 PM 44.5160 -68.7080 39° Northeast 495 570 33,000  Level FlightAware ADS-B
Fri 08:50:01 PM 44.5880 -68.6250 39° Northeast 494 568 33,000  Level FlightAware ADS-B
Fri 08:50:46 PM 44.6660 -68.5350 39° Northeast 491 565 33,000  Level FlightAware ADS-B
Fri 08:51:26 PM 44.7380 -68.4510 40° Northeast 488 562 33,000  Level FlightAware ADS-B
Fri 08:52:11 PM 44.8140 -68.3620 40° Northeast 488 562 33,000  Level FlightAware ADS-B
Fri 08:52:51 PM 44.8850 -68.2790 40° Northeast 489 563 33,000  Level FlightAware ADS-B
Fri 08:53:36 PM 44.9610 -68.1890 40° Northeast 491 565 33,000  Level FlightAware ADS-B
Fri 08:54:16 PM 45.0340 -68.1040 39° Northeast 493 567 33,000  Level FlightAware ADS-B
Fri 08:54:56 PM 45.1040 -68.0210 40° Northeast 493 567 33,000  Level FlightAware ADS-B
Fri 08:55:41 PM 45.1810 -67.9290 40° Northeast 495 570 33,000  Level FlightAware ADS-B
Fri 08:56:16 PM 45.2410 -67.8580 40° Northeast 496 571 33,000  Level FlightAware ADS-B
Fri 08:57:01 PM 45.3220 -67.7610 40° Northeast 494 568 33,000  Level FlightAware ADS-B
Fri 08:57:41 PM 45.3920 -67.6900 35° Northeast 491 565 33,000  Level FlightAware ADS-B
Fri 08:58:26 PM 45.4740 -67.6120 34° Northeast 486 559 33,000  Level FlightAware ADS-B
Fri 08:59:11 PM 45.5600 -67.5310 33° Northeast 489 563 33,000  Level FlightAware ADS-B
Fri 08:59:51 PM 45.6360 -67.4590 34° Northeast 489 563 33,000  Level FlightAware ADS-B
Fri 09:00:31 PM 45.7120 -67.3870 33° Northeast 490 564 33,000  Level FlightAware ADS-B
Fri 09:01:16 PM 45.7980 -67.3050 34° Northeast 491 565 33,000  Level FlightAware ADS-B
Fri 09:01:56 PM 45.8750 -67.2310 34° Northeast 490 564 33,000  Level FlightAware ADS-B
Fri 09:02:41 PM 45.9600 -67.1490 34° Northeast 489 563 33,000  Level FlightAware ADS-B
Fri 09:03:36 PM 46.0730 -67.0400 34° Northeast 495 570 33,000  Level FlightAware ADS-B
Fri 09:04:16 PM 46.1490 -66.9670 34° Northeast 494 568 33,000  Level FlightAware ADS-B
Fri 09:05:01 PM 46.2250 -66.8920 34° Northeast 494 568 33,000  Level FlightAware ADS-B
Fri 09:05:36 PM 46.2950 -66.8250 33° Northeast 493 567 33,000  Level FlightAware ADS-B
Fri 09:06:16 PM 46.3680 -66.7530 34° Northeast 493 567 33,000  Level FlightAware ADS-B
Fri 09:07:06 PM 46.4480 -66.6740 34° Northeast 493 567 33,000  Level FlightAware ADS-B
Fri 09:07:46 PM 46.5130 -66.6110 34° Northeast 493 567 33,000  Level FlightAware ADS-B
Fri 09:08:26 PM 46.5770 -66.5480 34° Northeast 493 567 33,000  Level FlightAware ADS-B
Fri 09:09:06 PM 46.6410 -66.4850 34° Northeast 493 567 33,000  Level FlightAware ADS-B
Fri 09:09:46 PM 46.7060 -66.4220 34° Northeast 493 567 33,000  Level FlightAware ADS-B
Fri 09:10:36 PM 46.7860 -66.3430 34° Northeast 493 567 33,000  Level FlightAware ADS-B
Fri 09:11:16 PM 46.8500 -66.2800 34° Northeast 493 567 33,000  Level FlightAware ADS-B
Fri 09:11:56 PM 46.9140 -66.2160 34° Northeast 493 567 33,000  Level FlightAware ADS-B
Fri 09:12:36 PM 46.9790 -66.1530 33° Northeast 493 567 33,000  Level FlightAware ADS-B
Fri 09:13:16 PM 47.0430 -66.0890 34° Northeast 493 567 33,000  Level FlightAware ADS-B
Fri 09:14:06 PM 47.1230 -66.0090 34° Northeast 493 567 33,000  Level FlightAware ADS-B
Fri 09:14:46 PM 47.1880 -65.9460 33° Northeast 493 567 33,000  Level FlightAware ADS-B
Fri 09:15:26 PM 47.2520 -65.8820 34° Northeast 493 567 33,000  Level FlightAware ADS-B
Fri 09:16:34 PM 47.5333 -65.5667 34° Northeast 490 564 33,000  Level Gander Center
Fri 09:17:34 PM 47.6333 -65.4500 38° Northeast 490 564 33,000  Level Gander Center
Fri 09:18:40 PM 47.7667 -65.3167 34° Northeast 490 564 33,000  Level Moncton Center
Fri 09:19:40 PM 47.8833 -65.2000 34° Northeast 490 564 33,000  Level Moncton Center
Fri 09:20:40 PM 47.9833 -65.1000 34° Northeast 490 564 33,000  Level Moncton Center
Fri 09:21:40 PM 48.1000 -64.9667 37° Northeast 490 564 33,000  Level Moncton Center
Fri 09:22:40 PM 48.2000 -64.8500 38° Northeast 490 564 33,000  Level Moncton Center
Fri 09:23:40 PM 48.3167 -64.7167 37° Northeast 490 564 33,000  Level Moncton Center
Fri 09:24:40 PM 48.4333 -64.6000 34° Northeast 490 564 33,000  Level Moncton Center
Fri 09:25:40 PM 48.5333 -64.5000 34° Northeast 500 575 33,000  Level Moncton Center
Fri 09:26:40 PM 48.6500 -64.3667 37° Northeast 490 564 33,000  Level Moncton Center
Fri 09:28:35 PM 48.8667 -64.1333 35° Northeast 490 564 33,000  Level Gander Center
Fri 09:29:40 PM 48.9833 -63.9833 40° Northeast 490 564 33,000  Level Moncton Center
Fri 09:30:40 PM 49.1000 -63.8667 33° Northeast 490 564 33,000  Level Moncton Center
Fri 09:31:40 PM 49.2000 -63.7500 37° Northeast 500 575 33,000  Level Moncton Center
Fri 09:32:40 PM 49.3167 -63.6333 33° Northeast 500 575 33,000  Level Moncton Center
Fri 09:33:40 PM 49.4333 -63.5000 37° Northeast 500 575 33,000  Level Moncton Center
Fri 09:34:40 PM 49.5500 -63.3667 37° Northeast 500 575 33,000  Level Moncton Center
Fri 09:36:34 PM 49.7500 -63.1167 39° Northeast 500 575 33,000  Level Gander Center
Fri 09:37:40 PM 49.8833 -62.9667 36° Northeast 500 575 33,000  Level Moncton Center
Fri 09:38:40 PM 49.9833 -62.8667 33° Northeast 510 587 33,000 -105 Level Moncton Center
Fri 09:39:34 PM 50.1000 -62.7333 36° Northeast 500 575 32,800 -526 Descending Gander Center
Fri 09:40:34 PM 50.2000 -62.6167 37° Northeast 500 575 32,000 -400 Descending Gander Center
Fri 09:41:34 PM 50.3167 -62.4833 36° Northeast 500 575 32,000  Level Gander Center
Fri 09:42:34 PM 50.4333 -62.3333 39° Northeast 500 575 32,000  Level Gander Center
Fri 09:43:34 PM 50.5333 -62.2000 40° Northeast 500 575 32,000  Level Gander Center
Fri 09:44:34 PM 50.6333 -62.0667 40° Northeast 500 575 32,000  Level Gander Center
Fri 09:45:34 PM 50.7500 -61.9500 32° Northeast 500 575 32,000  Level Gander Center
Fri 09:46:40 PM 50.8667 -61.7667 45° Northeast 510 587 32,000  Level Moncton Center
Fri 09:47:34 PM 50.9667 -61.6500 36° Northeast 510 587 32,000  Level Gander Center
Fri 09:48:34 PM 51.0833 -61.5167 36° Northeast 520 598 32,000  Level Gander Center
Fri 09:49:34 PM 51.2000 -61.3667 39° Northeast 520 598 32,000  Level Gander Center
Fri 09:50:34 PM 51.3167 -61.2333 36° Northeast 520 598 32,000  Level Gander Center
Fri 09:51:34 PM 51.4333 -61.0667 42° Northeast 520 598 32,000  Level Gander Center
Fri 09:52:34 PM 51.5333 -60.9333 40° Northeast 530 610 32,000  Level Gander Center
Fri 09:53:34 PM 51.6667 -60.7667 38° Northeast 530 610 32,000  Level Gander Center
Fri 09:54:34 PM 51.7667 -60.6333 40° Northeast 530 610 32,000  Level Gander Center
Fri 09:56:34 PM 52.0000 -60.3333 38° Northeast 540 621 32,000  Level Gander Center
Fri 09:57:34 PM 52.1333 -60.1667 37° Northeast 540 621 32,000  Level Gander Center
Fri 09:58:34 PM 52.2333 -60.0333 39° Northeast 540 621 32,000  Level Gander Center
Fri 09:59:34 PM 52.3500 -59.8667 41° Northeast 550 633 32,000  Level Gander Center
Fri 10:00:34 PM 52.4500 -59.6667 51° Northeast 550 633 32,000  Level Gander Center
Fri 10:01:34 PM 52.5667 -59.5000 41° Northeast 550 633 32,000  Level Gander Center
Fri 10:02:34 PM 52.6833 -59.3000 46° Northeast 550 633 32,000  Level Gander Center
Fri 10:03:34 PM 52.7667 -59.1333 50° Northeast 550 633 32,000  Level Gander Center
Fri 10:04:34 PM 52.8833 -58.9500 43° Northeast 550 633 32,000  Level Gander Center
Fri 10:05:34 PM 53.0000 -58.7500 46° Northeast 550 633 32,000  Level Gander Center
Fri 10:06:34 PM 53.1167 -58.5833 41° Northeast 560 644 32,000  Level Gander Center
Fri 10:07:40 PM 53.2333 -58.3833 46° Northeast 560 644 32,000  Level Moncton Center
Fri 10:08:34 PM 53.3167 -58.2000 53° Northeast 560 644 32,000  Level Gander Center
Fri 10:09:34 PM 53.4167 -58.0333 45° Northeast 560 644 32,000  Level Gander Center
Fri 10:10:34 PM 53.5333 -57.8500 43° Northeast 560 644 32,000  Level Gander Center
Fri 10:11:34 PM 53.6500 -57.6500 45° Northeast 560 644 32,000  Level Gander Center
Fri 10:12:34 PM 53.7333 -57.4333 57° Northeast 560 644 32,000  Level Gander Center
Fri 10:13:34 PM 53.8500 -57.2500 43° Northeast 560 644 32,000  Level Gander Center
Fri 10:14:34 PM 53.9500 -57.0500 50° Northeast 560 644 32,000  Level Gander Center
Fri 10:15:34 PM 54.0667 -56.8667 43° Northeast 560 644 32,000  Level Gander Center
Fri 10:16:34 PM 54.1833 -56.6500 47° Northeast 570 656 32,000  Level Gander Center
Fri 10:17:34 PM 54.2833 -56.4333 52° Northeast 570 656 32,000  Level Gander Center
Fri 10:18:34 PM 54.3833 -56.2500 47° Northeast 570 656 32,000  Level Gander Center
Fri 10:19:34 PM 54.4833 -56.0667 47° Northeast 570 656 32,000  Level Gander Center
Fri 10:20:34 PM 54.6000 -55.8500 47° Northeast 570 656 32,000  Level Gander Center
Fri 10:21:34 PM 54.6667 -55.6167 64° Northeast 580 667 32,000  Level Gander Center
Fri 10:22:34 PM 54.7333 -55.3500 66° East 580 667 32,000  Level Gander Center
Fri 10:23:34 PM 54.8167 -55.1000 60° Northeast 580 667 32,000  Level Gander Center
Fri 10:24:34 PM 54.8833 -54.8333 66° East 580 667 32,000  Level Gander Center
Fri 10:25:34 PM 54.9333 -54.5833 71° East 580 667 32,000  Level Gander Center
Fri 10:26:34 PM 55.0000 -54.3167 66° East 580 667 32,000  Level Gander Center
Fri 10:27:34 PM 55.0833 -54.0667 60° Northeast 580 667 32,000  Level Gander Center
Fri 10:28:34 PM 55.1167 -53.8167 77° East 590 679 32,000  Level Gander Center
Fri 10:29:34 PM 55.2000 -53.5667 60° Northeast 580 667 32,000  Level Gander Center
Fri 10:30:34 PM 55.2500 -53.3000 72° East 580 667 32,000  Level Gander Center
Fri 10:31:34 PM 55.3167 -53.0500 65° Northeast 580 667 32,000  Level Gander Center
Fri 10:33:34 PM 55.4333 -52.5167 69° East 580 667 32,000  Level Gander Center
Fri 10:34:34 PM 55.5000 -52.2500 66° East 580 667 32,000  Level Gander Center
Fri 10:35:34 PM 55.5500 -52.0000 70° East 580 667 32,000  Level Gander Center
Fri 10:36:34 PM 55.6167 -51.7333 66° East 580 667 32,000  Level Gander Center
Fri 10:37:34 PM 55.6667 -51.4500 73° East 570 656 32,000  Level Gander Center
Fri 10:38:34 PM 55.7167 -51.1833 71° East 580 667 32,000  Level Gander Center
Fri 10:39:34 PM 55.8000 -50.9500 57° Northeast 580 667 32,000 11 Level Gander Center
Fri 10:41:00 PM 55.8701 -50.6219 69° East  Level FlightAware Approximate
Fri 10:48:00 PM 56.2440 -49.0123 66° East  Level FlightAware Approximate
Fri 10:49:00 PM 56.2993 -48.7823 67° East  Level FlightAware Approximate
Fri 10:50:00 PM 56.3541 -48.5517 67° East  Level FlightAware Approximate
Fri 10:51:00 PM 56.4085 -48.3204 67° East  Level FlightAware Approximate
Fri 10:52:00 PM 56.4625 -48.0884 67° East  Level FlightAware Approximate
Fri 10:53:00 PM 56.5160 -47.8558 67° East  Level FlightAware Approximate
Fri 10:54:00 PM 56.5691 -47.6225 67° East  Level FlightAware Approximate
Fri 10:55:00 PM 56.6218 -47.3885 68° East  Level FlightAware Approximate
Fri 10:56:00 PM 56.6740 -47.1539 68° East  Level FlightAware Approximate
Fri 10:57:00 PM 56.7258 -46.9187 68° East  Level FlightAware Approximate
Fri 10:58:00 PM 56.7771 -46.6828 68° East  Level FlightAware Approximate
Fri 10:59:00 PM 56.8280 -46.4463 68° East  Level FlightAware Approximate
Fri 11:00:00 PM 56.8784 -46.2091 69° East  Level FlightAware Approximate
Fri 11:01:00 PM 56.9284 -45.9713 69° East  Level FlightAware Approximate
Fri 11:02:00 PM 56.9780 -45.7328 69° East  Level FlightAware Approximate
Fri 11:03:00 PM 57.0270 -45.4938 69° East  Level FlightAware Approximate
Fri 11:04:00 PM 57.0756 -45.2541 69° East  Level FlightAware Approximate
Fri 11:05:00 PM 57.1238 -45.0137 70° East  Level FlightAware Approximate
Fri 11:06:00 PM 57.1715 -44.7728 70° East  Level FlightAware Approximate
Fri 11:07:00 PM 57.2188 -44.5312 70° East  Level FlightAware Approximate
Fri 11:08:00 PM 57.2655 -44.2890 70° East  Level FlightAware Approximate
Fri 11:09:00 PM 57.3118 -44.0462 70° East  Level FlightAware Approximate
Fri 11:10:00 PM 57.3577 -43.8028 71° East  Level FlightAware Approximate
Fri 11:11:00 PM 57.4030 -43.5588 71° East  Level FlightAware Approximate
Fri 11:12:00 PM 57.4479 -43.3142 71° East  Level FlightAware Approximate
Fri 11:13:00 PM 57.4924 -43.0690 71° East  Level FlightAware Approximate
Fri 11:14:00 PM 57.5363 -42.8232 71° East  Level FlightAware Approximate
Fri 11:15:00 PM 57.5798 -42.5768 72° East  Level FlightAware Approximate
Fri 11:16:00 PM 57.6228 -42.3298 72° East  Level FlightAware Approximate
Fri 11:17:00 PM 57.6653 -42.0822 72° East  Level FlightAware Approximate
Fri 11:18:00 PM 57.7073 -41.8340 72° East  Level FlightAware Approximate
Fri 11:19:00 PM 57.7488 -41.5853 73° East  Level FlightAware Approximate
Fri 11:20:00 PM 57.7899 -41.3360 73° East  Level FlightAware Approximate
Fri 11:21:00 PM 57.8304 -41.0862 73° East  Level FlightAware Approximate
Fri 11:22:00 PM 57.8705 -40.8358 73° East  Level FlightAware Approximate
Fri 11:23:00 PM 57.9100 -40.5848 73° East  Level FlightAware Approximate
Fri 11:24:00 PM 57.9491 -40.3333 74° East  Level FlightAware Approximate
Fri 11:25:00 PM 57.9877 -40.0812 74° East  Level FlightAware Approximate
Fri 11:26:00 PM 58.0069 -39.8224 86° East  Level FlightAware Approximate
Fri 11:27:00 PM 58.0165 -39.5603 86° East  Level FlightAware Approximate
Fri 11:28:00 PM 58.0256 -39.2982 86° East  Level FlightAware Approximate
Fri 11:29:00 PM 58.0342 -39.0359 86° East  Level FlightAware Approximate
Fri 11:30:00 PM 58.0423 -38.7734 87° East  Level FlightAware Approximate
Fri 11:31:00 PM 58.0498 -38.5109 87° East  Level FlightAware Approximate
Fri 11:32:00 PM 58.0567 -38.2483 87° East  Level FlightAware Approximate
Fri 11:33:00 PM 58.0631 -37.9855 87° East  Level FlightAware Approximate
Fri 11:34:00 PM 58.0690 -37.7227 87° East  Level FlightAware Approximate
Fri 11:35:00 PM 58.0744 -37.4598 88° East  Level FlightAware Approximate
Fri 11:36:00 PM 58.0792 -37.1968 88° East  Level FlightAware Approximate
Fri 11:37:00 PM 58.0834 -36.9338 88° East  Level FlightAware Approximate
Fri 11:38:00 PM 58.0871 -36.6707 88° East  Level FlightAware Approximate
Fri 11:39:00 PM 58.0903 -36.4075 89° East  Level FlightAware Approximate
Fri 11:40:00 PM 58.0929 -36.1443 89° East  Level FlightAware Approximate
Fri 11:41:00 PM 58.0950 -35.8811 89° East  Level FlightAware Approximate
Fri 11:42:00 PM 58.0966 -35.6178 89° East  Level FlightAware Approximate
Fri 11:43:00 PM 58.0976 -35.3545 89° East  Level FlightAware Approximate
Fri 11:44:00 PM 58.0980 -35.0912 90° East  Level FlightAware Approximate
Fri 11:45:00 PM 58.0980 -34.8279 90° East  Level FlightAware Approximate
Fri 11:46:00 PM 58.0973 -34.5646 90° East  Level FlightAware Approximate
Fri 11:47:00 PM 58.0962 -34.3014 90° East  Level FlightAware Approximate
Fri 11:48:00 PM 58.0945 -34.0381 91° East  Level FlightAware Approximate
Fri 11:49:00 PM 58.0922 -33.7749 91° East  Level FlightAware Approximate
Fri 11:50:00 PM 58.0894 -33.5117 91° East  Level FlightAware Approximate
Fri 11:51:00 PM 58.0861 -33.2485 91° East  Level FlightAware Approximate
Fri 11:52:00 PM 58.0822 -32.9854 91° East  Level FlightAware Approximate
Fri 11:53:00 PM 58.0778 -32.7224 92° East  Level FlightAware Approximate
Fri 11:54:00 PM 58.0728 -32.4594 92° East  Level FlightAware Approximate
Fri 11:55:00 PM 58.0673 -32.1966 92° East  Level FlightAware Approximate
Fri 11:56:00 PM 58.0612 -31.9338 92° East  Level FlightAware Approximate
Fri 11:57:00 PM 58.0546 -31.6711 93° East  Level FlightAware Approximate
Fri 11:58:00 PM 58.0475 -31.4084 93° East  Level FlightAware Approximate
Fri 11:59:00 PM 58.0398 -31.1460 93° East  Level FlightAware Approximate
Sat 12:00:00 AM 58.0316 -30.8836 93° East  Level FlightAware Approximate
Sat 12:01:00 AM 58.0229 -30.6213 93° East  Level FlightAware Approximate
Sat 12:02:00 AM 58.0136 -30.3592 94° East  Level FlightAware Approximate
Sat 12:03:00 AM 58.0038 -30.0972 94° East  Level FlightAware Approximate
Sat 12:04:00 AM 57.9759 -29.8413 106° East  Level FlightAware Approximate
Sat 12:05:00 AM 57.9372 -29.5894 106° East  Level FlightAware Approximate
Sat 12:06:00 AM 57.8979 -29.3381 106° East  Level FlightAware Approximate
Sat 12:07:00 AM 57.8582 -29.0873 106° East  Level FlightAware Approximate
Sat 12:08:00 AM 57.8180 -28.8370 107° East  Level FlightAware Approximate
Sat 12:09:00 AM 57.7773 -28.5874 107° East  Level FlightAware Approximate
Sat 12:10:00 AM 57.7361 -28.3382 107° East  Level FlightAware Approximate
Sat 12:11:00 AM 57.6945 -28.0897 107° East  Level FlightAware Approximate
Sat 12:12:00 AM 57.6523 -27.8417 108° East  Level FlightAware Approximate
Sat 12:13:00 AM 57.6096 -27.5944 108° East  Level FlightAware Approximate
Sat 12:14:00 AM 57.5665 -27.3475 108° East  Level FlightAware Approximate
Sat 12:15:00 AM 57.5229 -27.1013 108° East  Level FlightAware Approximate
Sat 12:16:00 AM 57.4788 -26.8557 108° East  Level FlightAware Approximate
Sat 12:17:00 AM 57.4342 -26.6107 109° East  Level FlightAware Approximate
Sat 12:18:00 AM 57.3892 -26.3662 109° East  Level FlightAware Approximate
Sat 12:19:00 AM 57.3437 -26.1224 109° East  Level FlightAware Approximate
Sat 12:20:00 AM 57.2977 -25.8792 109° East  Level FlightAware Approximate
Sat 12:21:00 AM 57.2512 -25.6366 109° East  Level FlightAware Approximate
Sat 12:22:00 AM 57.2043 -25.3946 110° East  Level FlightAware Approximate
Sat 12:23:00 AM 57.1569 -25.1532 110° East  Level FlightAware Approximate
Sat 12:24:00 AM 57.1091 -24.9124 110° East  Level FlightAware Approximate
Sat 12:25:00 AM 57.0608 -24.6723 110° East  Level FlightAware Approximate
Sat 12:26:00 AM 57.0120 -24.4328 110° East  Level FlightAware Approximate
Sat 12:27:00 AM 56.9628 -24.1939 111° Southeast  Level FlightAware Approximate
Sat 12:28:00 AM 56.9131 -23.9557 111° Southeast  Level FlightAware Approximate
Sat 12:29:00 AM 56.8630 -23.7180 111° Southeast  Level FlightAware Approximate
Sat 12:30:00 AM 56.8124 -23.4811 111° Southeast  Level FlightAware Approximate
Sat 12:31:00 AM 56.7614 -23.2447 111° Southeast  Level FlightAware Approximate
Sat 12:32:00 AM 56.7099 -23.0091 112° Southeast  Level FlightAware Approximate
Sat 12:33:00 AM 56.6580 -22.7740 112° Southeast  Level FlightAware Approximate
Sat 12:34:00 AM 56.6057 -22.5396 112° Southeast  Level FlightAware Approximate
Sat 12:35:00 AM 56.5529 -22.3059 112° Southeast  Level FlightAware Approximate
Sat 12:36:00 AM 56.4996 -22.0728 112° Southeast  Level FlightAware Approximate
Sat 12:37:00 AM 56.4460 -21.8404 113° Southeast  Level FlightAware Approximate
Sat 12:38:00 AM 56.3919 -21.6086 113° Southeast  Level FlightAware Approximate
Sat 12:39:00 AM 56.3373 -21.3775 113° Southeast  Level FlightAware Approximate
Sat 12:40:00 AM 56.2824 -21.1470 113° Southeast  Level FlightAware Approximate
Sat 12:41:00 AM 56.2270 -20.9173 113° Southeast  Level FlightAware Approximate
Sat 12:42:00 AM 56.1712 -20.6881 114° Southeast  Level FlightAware Approximate
Sat 12:43:00 AM 56.1149 -20.4597 114° Southeast  Level FlightAware Approximate
Sat 12:44:00 AM 56.0583 -20.2319 114° Southeast  Level FlightAware Approximate
Sat 12:45:00 AM 56.0012 -20.0048 114° Southeast  Level FlightAware Approximate
Sat 12:46:00 AM 55.9742 -19.7609 101° East  Level FlightAware Approximate
Sat 12:47:00 AM 55.9473 -19.5170 101° East  Level FlightAware Approximate
Sat 12:48:00 AM 55.9199 -19.2735 101° East  Level FlightAware Approximate
Sat 12:49:00 AM 55.8921 -19.0302 101° East  Level FlightAware Approximate
Sat 12:50:00 AM 55.8638 -18.7874 102° East  Level FlightAware Approximate
Sat 12:51:00 AM 55.8349 -18.5449 102° East  Level FlightAware Approximate
Sat 12:52:00 AM 55.8057 -18.3027 102° East  Level FlightAware Approximate
Sat 12:53:00 AM 55.7759 -18.0610 102° East  Level FlightAware Approximate
Sat 12:54:00 AM 55.7457 -17.8196 102° East  Level FlightAware Approximate
Sat 12:55:00 AM 55.7150 -17.5786 103° East  Level FlightAware Approximate
Sat 12:56:00 AM 55.6838 -17.3379 103° East  Level FlightAware Approximate
Sat 12:57:00 AM 55.6522 -17.0977 103° East  Level FlightAware Approximate
Sat 12:58:00 AM 55.6201 -16.8578 103° East  Level FlightAware Approximate
Sat 12:58:46 AM 54.7400 -12.9220 103° East 543 625 33,600  Level FlightAware ADS-B
Sat 12:59:00 AM 55.5876 -16.6183 103° East  Level FlightAware Approximate
Sat 12:59:31 AM 54.7140 -12.7280 103° East 537 618 33,900  Level FlightAware ADS-B
Sat 01:00:11 AM 54.6910 -12.5630 103° East 533 613 34,100 353 Climbing FlightAware ADS-B
Sat 01:00:56 AM 54.6660 -12.3790 103° East 533 613 34,400 424 Climbing FlightAware ADS-B
Sat 01:01:36 AM 54.6420 -12.2110 104° East 540 621 34,700 424 Climbing FlightAware ADS-B
Sat 01:02:21 AM 54.6160 -12.0250 104° East 553 636 35,000 424 Climbing FlightAware ADS-B
Sat 01:03:01 AM 54.5900 -11.8480 104° East 542 624 35,300 375 Climbing FlightAware ADS-B
Sat 01:03:41 AM 54.5660 -11.6830 104° East 529 609 35,500 353 Climbing FlightAware ADS-B
Sat 01:04:26 AM 54.5400 -11.5000 104° East 527 606 35,800 353 Climbing FlightAware ADS-B
Sat 01:05:06 AM 54.5160 -11.3400 104° East 524 603 36,000 353 Climbing FlightAware ADS-B
Sat 01:05:51 AM 54.4890 -11.1620 105° East 527 606 36,300 424 Climbing FlightAware ADS-B
Sat 01:06:31 AM 54.4640 -10.9950 104° East 528 608 36,600 450 Climbing FlightAware ADS-B
Sat 01:07:11 AM 54.4390 -10.8360 105° East 534 615 36,900 282 Climbing FlightAware ADS-B
Sat 01:07:56 AM 54.4100 -10.6470 105° East 532 612 37,000 71 Climbing FlightAware ADS-B
Sat 01:08:36 AM 54.3850 -10.4870 105° East 528 608 37,000  Level FlightAware ADS-B
Sat 01:09:16 AM 54.3590 -10.3230 105° East 526 605 37,000  Level FlightAware ADS-B
Sat 01:09:56 AM 54.3340 -10.1630 105° East 525 604 37,000  Level FlightAware ADS-B
Sat 01:10:36 AM 54.3080 -10.0050 106° East 522 601 37,000  Level FlightAware ADS-B
Sat 01:11:26 AM 54.2760 -9.8030 105° East 521 600 37,000  Level FlightAware ADS-B
Sat 01:12:06 AM 54.2500 -9.6460 106° East 521 600 37,000  Level FlightAware ADS-B
Sat 01:12:46 AM 54.2230 -9.4870 106° East 522 601 37,000  Level FlightAware ADS-B
Sat 01:13:31 AM 54.1940 -9.3090 105° East 523 602 37,000  Level FlightAware ADS-B
Sat 01:14:11 AM 54.1660 -9.1480 106° East 519 597 37,000 -1,084 Level FlightAware ADS-B
Sat 01:14:54 AM 54.1358 -8.9666 106° East 488 562 35,500  Descending FlightAware UK
Sat 01:14:56 AM 54.1370 -8.9760 106° East 515 593 37,000  Climbing FlightAware ADS-B
Sat 01:15:12 AM 54.1233 -8.8959 106° East 488 562 35,500 -2,647 Descending FlightAware UK
Sat 01:15:30 AM 54.1114 -8.8263 106° East 480 552 35,500 3,750 Level FlightAware UK
Sat 01:15:36 AM 54.1100 -8.8210 106° East 514 592 37,000  Climbing FlightAware ADS-B
Sat 01:15:54 AM 54.0953 -8.7335 106° East 480 552 35,500 -2,500 Descending FlightAware UK
Sat 01:16:12 AM 54.0832 -8.6636 106° East 482 555 35,500 3,333 Level FlightAware UK
Sat 01:16:21 AM 54.0790 -8.6450 106° East 517 595 37,000  Climbing FlightAware ADS-B
Sat 01:16:36 AM 54.0670 -8.5704 106° East 492 566 35,500 -2,727 Descending FlightAware UK
Sat 01:16:54 AM 54.0545 -8.5000 107° East 488 562 35,500 3,600 Level FlightAware UK
Sat 01:17:01 AM 54.0520 -8.4910 107° East 512 589 37,000  Climbing FlightAware ADS-B
Sat 01:17:18 AM 54.0379 -8.4074 107° East 488 562 35,500 -2,571 Descending FlightAware UK
Sat 01:17:36 AM 54.0256 -8.3384 107° East 484 557 35,500 3,913 Level FlightAware UK
Sat 01:17:41 AM 54.0250 -8.3360 107° East 509 586 37,000  Climbing FlightAware ADS-B
Sat 01:18:00 AM 54.0092 -8.2472 107° East 484 557 35,500 -2,432 Descending FlightAware UK
Sat 01:18:18 AM 53.9967 -8.1786 107° East 482 555 35,500 3,462 Level FlightAware UK
Sat 01:18:26 AM 53.9940 -8.1660 107° East 510 587 37,000  Climbing FlightAware ADS-B
Sat 01:18:42 AM 53.9807 -8.0870 107° East 482 555 35,500 -2,647 Descending FlightAware UK
Sat 01:19:00 AM 53.9684 -8.0182 107° East 484 557 35,500 3,750 Level FlightAware UK
Sat 01:19:06 AM 53.9670 -8.0160 107° East 511 588 37,000  Climbing FlightAware ADS-B
Sat 01:19:24 AM 53.9517 -7.9267 107° East 482 555 35,500 -2,500 Descending FlightAware UK
Sat 01:19:42 AM 53.9391 -7.8578 107° East 482 555 35,500 3,333 Level FlightAware UK
Sat 01:19:51 AM 53.9360 -7.8410 107° East 510 587 37,000  Climbing FlightAware ADS-B
Sat 01:20:06 AM 53.9223 -7.7658 107° East 482 555 35,500 -2,727 Descending FlightAware UK
Sat 01:20:24 AM 53.9096 -7.6968 107° East 484 557 35,500 3,600 Level FlightAware UK
Sat 01:20:31 AM 53.9080 -7.6880 107° East 512 589 37,000  Climbing FlightAware ADS-B
Sat 01:20:48 AM 53.8927 -7.6047 107° East 482 555 35,500 -2,571 Descending FlightAware UK
Sat 01:21:06 AM 53.8798 -7.5347 107° East 484 557 35,500 3,913 Level FlightAware UK
Sat 01:21:11 AM 53.8780 -7.5290 107° East 511 588 37,000  Climbing FlightAware ADS-B
Sat 01:21:30 AM 53.8627 -7.4436 107° East 486 559 35,500 -2,432 Descending FlightAware UK
Sat 01:21:48 AM 53.8496 -7.3740 108° East 488 562 35,500 3,462 Level FlightAware UK
Sat 01:21:56 AM 53.8460 -7.3590 108° East 509 586 37,000  Climbing FlightAware ADS-B
Sat 01:22:12 AM 53.8324 -7.2832 108° East 486 559 35,500 -2,647 Descending FlightAware UK
Sat 01:22:30 AM 53.8193 -7.2139 108° East 484 557 35,500 3,750 Level FlightAware UK
Sat 01:22:36 AM 53.8170 -7.2040 108° East 509 586 37,000  Climbing FlightAware ADS-B
Sat 01:22:54 AM 53.8020 -7.1227 108° East 486 559 35,500 -2,500 Descending FlightAware UK
Sat 01:23:12 AM 53.7890 -7.0545 108° East 484 557 35,500 4,091 Level FlightAware UK
Sat 01:23:16 AM 53.7890 -7.0540 108° East 507 583 37,000  Climbing FlightAware ADS-B
Sat 01:23:36 AM 53.7719 -6.9638 108° East 482 555 35,500 -2,368 Descending FlightAware UK
Sat 01:23:54 AM 53.7588 -6.8960 108° East 482 555 35,500 3,600 Level FlightAware UK
Sat 01:24:01 AM 53.7560 -6.8850 108° East 507 583 37,000  Climbing FlightAware ADS-B
Sat 01:24:18 AM 53.7413 -6.8055 108° East 482 555 35,500 -2,571 Descending FlightAware UK
Sat 01:24:36 AM 53.7282 -6.7377 108° East 482 555 35,500 3,913 Level FlightAware UK
Sat 01:24:41 AM 53.7270 -6.7320 108° East 512 589 37,000  Climbing FlightAware ADS-B
Sat 01:25:00 AM 53.7106 -6.6470 108° East 484 557 35,500 -2,432 Descending FlightAware UK
Sat 01:25:18 AM 53.6973 -6.5789 108° East 490 564 35,500 3,462 Level FlightAware UK
Sat 01:25:26 AM 53.6940 -6.5640 108° East 510 587 37,000  Climbing FlightAware ADS-B
Sat 01:25:42 AM 53.6796 -6.4883 108° East 484 557 35,500 -2,647 Descending FlightAware UK
Sat 01:26:00 AM 53.6663 -6.4207 108° East 482 555 35,500 3,750 Level FlightAware UK
Sat 01:26:06 AM 53.6640 -6.4110 108° East 507 583 37,000  Climbing FlightAware ADS-B
Sat 01:26:24 AM 53.6483 -6.3301 108° East 482 555 35,500 -2,500 Descending FlightAware UK
Sat 01:26:42 AM 53.6351 -6.2633 108° East 484 557 35,500 3,333 Level FlightAware UK
Sat 01:26:51 AM 53.6310 -6.2430 108° East 511 588 37,000  Climbing FlightAware ADS-B
Sat 01:27:06 AM 53.6171 -6.1732 108° East 484 557 35,500 -2,727 Descending FlightAware UK
Sat 01:27:24 AM 53.6035 -6.1049 109° East 484 557 35,500 3,600 Level FlightAware UK
Sat 01:27:31 AM 53.6000 -6.0890 109° East 510 587 37,000  Climbing FlightAware ADS-B
Sat 01:27:48 AM 53.5853 -6.0147 109° East 484 557 35,500 -2,571 Descending FlightAware UK
Sat 01:28:06 AM 53.5718 -5.9470 109° East 484 557 35,500 3,913 Level FlightAware UK
Sat 01:28:11 AM 53.5690 -5.9360 109° East 512 589 37,000  Climbing FlightAware ADS-B
Sat 01:28:30 AM 53.5534 -5.8569 109° East 480 552 35,500 -2,432 Descending FlightAware UK
Sat 01:28:48 AM 53.5396 -5.7894 109° East 486 559 35,500 3,462 Level FlightAware UK
Sat 01:28:56 AM 53.5370 -5.7700 109° East 512 589 37,000  Climbing FlightAware ADS-B
Sat 01:29:12 AM 53.5316 -5.6948 109° East 480 552 35,500 -2,647 Descending FlightAware UK
Sat 01:29:30 AM 53.5265 -5.6236 97° East 488 562 35,500 3,750 Level FlightAware UK
Sat 01:29:36 AM 53.5260 -5.6150 97° East 514 592 37,000  Climbing FlightAware ADS-B
Sat 01:29:54 AM 53.5203 -5.5285 97° East 490 564 35,500 -2,500 Descending FlightAware UK
Sat 01:30:12 AM 53.5169 -5.4572 95° East 488 562 35,500 3,333 Level FlightAware UK
Sat 01:30:21 AM 53.5160 -5.4340 95° East 511 588 37,000  Climbing FlightAware ADS-B
Sat 01:30:36 AM 53.5137 -5.3627 95° East 486 559 35,500 -2,727 Descending FlightAware UK
Sat 01:30:54 AM 53.5112 -5.2917 93° East 482 555 35,500 3,600 Level FlightAware UK
Sat 01:31:01 AM 53.5110 -5.2760 93° East 510 587 37,000  Climbing FlightAware ADS-B
Sat 01:31:18 AM 53.5078 -5.1970 93° East 484 557 35,500 -2,571 Descending FlightAware UK
Sat 01:31:36 AM 53.5050 -5.1252 94° East 490 564 35,500 3,913 Level FlightAware UK
Sat 01:31:41 AM 53.5050 -5.1190 94° East 510 587 37,000  Climbing FlightAware ADS-B
Sat 01:32:00 AM 53.5010 -5.0307 94° East 488 562 35,500 -2,432 Descending FlightAware UK
Sat 01:32:18 AM 53.4980 -4.9599 94° East 482 555 35,500 3,462 Level FlightAware UK
Sat 01:32:26 AM 53.4970 -4.9350 94° East 508 585 37,000  Climbing FlightAware ADS-B
Sat 01:32:42 AM 53.4939 -4.8656 94° East 486 559 35,500 -2,647 Descending FlightAware UK
Sat 01:33:00 AM 53.4910 -4.7950 94° East 486 559 35,500 3,750 Level FlightAware UK
Sat 01:33:06 AM 53.4910 -4.7940 94° East 509 586 37,000  Climbing FlightAware ADS-B
Sat 01:33:30 AM 53.4857 -4.6772 94° East 484 557 35,500  Descending FlightAware UK
Sat 01:33:51 AM 53.4820 -4.6040 94° East 509 586 37,000  Climbing FlightAware ADS-B
Sat 01:34:07 AM 53.4792 -4.5351 94° East 484 557 35,500 -2,647 Descending FlightAware UK
Sat 01:34:25 AM 53.4760 -4.4644 94° East 482 555 35,500 3,750 Level FlightAware UK
Sat 01:34:31 AM 53.4750 -4.4490 94° East 509 586 37,000  Climbing FlightAware ADS-B
Sat 01:34:49 AM 53.4717 -4.3702 94° East 484 557 35,500 -2,500 Descending FlightAware UK
Sat 01:35:07 AM 53.4684 -4.2994 94° East 486 559 35,500 4,091 Level FlightAware UK
Sat 01:35:11 AM 53.4680 -4.2940 94° East 509 586 37,000  Climbing FlightAware ADS-B
Sat 01:35:31 AM 53.4642 -4.2051 94° East 486 559 35,500  Descending FlightAware UK
Sat 01:35:56 AM 53.4600 -4.1160 94° East 509 586 37,000  Climbing FlightAware ADS-B
Sat 01:36:13 AM 53.4562 -4.0399 94° East 486 559 35,500  Descending FlightAware UK
Sat 01:36:26 AM 53.4540 -3.9990 95° East 509 586 37,000  Climbing FlightAware ADS-B
Sat 01:36:31 AM 53.4528 -3.9692 95° East 484 557 35,500 -5,294 Descending FlightAware UK
Sat 01:36:43 AM 53.4505 -3.9221 95° East 484 557 35,500  Level FlightAware UK
Sat 01:37:07 AM 53.4458 -3.8279 95° East 486 559 35,500 2,368 Level FlightAware UK
Sat 01:37:21 AM 53.4440 -3.7820 95° East 509 586 37,000 3,600 Climbing FlightAware ADS-B
Sat 01:37:32 AM 53.4408 -3.7277 96° East 510 587 37,000 -3,214 Level FlightAware ADS-B
Sat 01:37:49 AM 53.4375 -3.6622 96° East 490 564 35,500 -2,571 Descending FlightAware UK
Sat 01:38:07 AM 53.4338 -3.5914 95° East 486 559 35,500 2,813 Level FlightAware UK
Sat 01:38:21 AM 53.4310 -3.5392 95° East 510 587 37,000  Climbing FlightAware ADS-B
Sat 01:38:37 AM 53.4276 -3.4737 95° East 482 555 35,500  Descending FlightAware UK
Sat 01:38:59 AM 53.4230 -3.3876 95° East 512 589 37,000 1,731 Climbing FlightAware ADS-B
Sat 01:39:29 AM 53.4165 -3.2686 95° East 512 589 37,000 -1,800 Level FlightAware ADS-B
Sat 01:39:49 AM 53.4121 -3.1903 95° East 484 557 35,500  Descending FlightAware UK
Sat 01:40:05 AM 53.4087 -3.1289 95° East 514 592 37,000  Climbing FlightAware ADS-B
Sat 01:40:25 AM 53.4041 -3.0472 95° East 490 564 35,500 -2,368 Descending FlightAware UK
Sat 01:40:43 AM 53.4001 -2.9750 95° East 486 559 35,500 4,286 Level FlightAware UK
Sat 01:40:46 AM 53.4000 -2.9700 95° East 514 592 37,000  Climbing FlightAware ADS-B
Sat 01:41:01 AM 53.3960 -2.9045 95° East 488 562 35,500  Descending FlightAware UK
Sat 01:41:15 AM 53.3929 -2.8522 95° East 514 592 37,000  Climbing FlightAware ADS-B
Sat 01:41:31 AM 53.3890 -2.7853 95° East 484 557 35,500 -2,647 Descending FlightAware UK
Sat 01:41:49 AM 53.3849 -2.7141 96° East 486 559 35,500 2,727 Level FlightAware UK
Sat 01:42:04 AM 53.3815 -2.6586 96° East 516 594 37,000  Climbing FlightAware ADS-B
Sat 01:42:19 AM 53.3777 -2.5956 96° East 488 562 35,500  Descending FlightAware UK
Sat 01:42:40 AM 53.3727 -2.5153 96° East 516 594 37,000  Climbing FlightAware ADS-B
Sat 01:42:55 AM 53.3689 -2.4533 96° East 488 562 35,500 -2,727 Descending FlightAware UK
Sat 01:43:13 AM 53.3644 -2.3812 96° East 484 557 35,500  Level FlightAware UK
Sat 01:43:31 AM 53.3600 -2.3099 96° East 486 559 35,500 3,913 Level FlightAware UK
Sat 01:43:36 AM 53.3590 -2.3010 96° East 516 594 37,000  Climbing FlightAware ADS-B
Sat 01:43:56 AM 53.3540 -2.2139 96° East 490 564 35,500 -2,368 Descending FlightAware UK
Sat 01:44:14 AM 53.3470 -2.1432 99° East 490 564 35,500 3,600 Level FlightAware UK
Sat 01:44:21 AM 53.3450 -2.1250 99° East 514 592 37,000  Climbing FlightAware ADS-B
Sat 01:44:38 AM 53.3374 -2.0495 99° East 486 559 35,500 -2,571 Descending FlightAware UK
Sat 01:44:56 AM 53.3299 -1.9794 100° East 484 557 35,500 3,913 Level FlightAware UK
Sat 01:45:01 AM 53.3290 -1.9700 100° East 513 590 37,000 3,000 Climbing FlightAware ADS-B
Sat 01:45:26 AM 53.3180 -1.8640 100° East 515 593 37,000  Level FlightAware ADS-B
Sat 01:45:58 AM 53.3051 -1.7355 99° East 516 594 37,000 -1,875 Level FlightAware ADS-B
Sat 01:46:14 AM 53.2989 -1.6733 99° East 488 562 35,500  Descending FlightAware UK
Sat 01:46:37 AM 53.2900 -1.5851 99° East 515 593 37,000  Climbing FlightAware ADS-B
Sat 01:46:56 AM 53.2822 -1.5079 99° East 490 564 35,500 -2,432 Descending FlightAware UK
Sat 01:47:14 AM 53.2751 -1.4376 99° East 490 564 35,500 2,143 Level FlightAware UK
Sat 01:47:38 AM 53.2658 -1.3457 99° East 514 592 37,000  Climbing FlightAware ADS-B
Sat 01:47:56 AM 53.2585 -1.2741 99° East 490 564 35,500  Descending FlightAware UK
Sat 01:48:08 AM 53.2536 -1.2275 99° East 511 588 37,000  Climbing FlightAware ADS-B
Sat 01:48:26 AM 53.2466 -1.1575 99° East 490 564 35,500  Descending FlightAware UK
Sat 01:48:39 AM 53.2413 -1.1090 99° East 510 587 37,000  Climbing FlightAware ADS-B
Sat 01:48:56 AM 53.2342 -1.0408 99° East 484 557 35,500  Descending FlightAware UK
Sat 01:49:11 AM 53.2300 -1.0050 99° East 509 586 37,000  Climbing FlightAware ADS-B
Sat 01:49:32 AM 53.2193 -0.9012 99° East 488 562 35,500  Descending FlightAware UK
Sat 01:49:51 AM 53.2130 -0.8450 99° East 510 587 37,000  Climbing FlightAware ADS-B
Sat 01:50:08 AM 53.2044 -0.7630 99° East 486 559 35,500 -2,571 Descending FlightAware UK
Sat 01:50:26 AM 53.1967 -0.6927 100° East 486 559 35,500 3,462 Level FlightAware UK
Sat 01:50:34 AM 53.1938 -0.6652 100° East 512 589 37,000  Climbing FlightAware ADS-B
Sat 01:50:56 AM 53.1841 -0.5764 100° East 486 559 35,500  Descending FlightAware UK
Sat 01:51:05 AM 53.1806 -0.5458 100° East 513 590 37,000  Climbing FlightAware ADS-B
Sat 01:51:21 AM 53.1736 -0.4827 100° East 488 562 35,500  Descending FlightAware UK
Sat 01:51:45 AM 53.1631 -0.3883 100° East 515 593 37,000  Climbing FlightAware ADS-B
Sat 01:52:03 AM 53.1554 -0.3197 100° East 490 564 35,500  Descending FlightAware UK
Sat 01:52:16 AM 53.1498 -0.2694 100° East 515 593 37,000  Climbing FlightAware ADS-B
Sat 01:52:33 AM 53.1422 -0.2031 100° East 490 564 35,500  Descending FlightAware UK
Sat 01:52:46 AM 53.1380 -0.1650 100° East 514 592 37,000 5,625 Climbing FlightAware ADS-B
Sat 01:52:49 AM 53.1353 -0.1422 101° East 514 592 37,000 -3,103 Level FlightAware ADS-B
Sat 01:53:15 AM 53.1236 -0.0392 101° East 490 564 35,500  Descending FlightAware UK
Sat 01:53:22 AM 53.1203 -0.0112 101° East 513 590 37,000  Climbing FlightAware ADS-B
Sat 01:53:45 AM 53.1102 0.0769 101° East 490 564 35,500  Descending FlightAware UK
Sat 01:53:53 AM 53.1067 0.1063 101° East 513 590 37,000  Climbing FlightAware ADS-B
Sat 01:54:09 AM 53.0992 0.1704 101° East 498 573 35,500  Descending FlightAware UK
Sat 01:54:24 AM 53.0929 0.2241 101° East 510 587 37,000  Climbing FlightAware ADS-B
Sat 01:54:39 AM 53.0857 0.2858 101° East 490 564 35,500  Descending FlightAware UK
Sat 01:54:57 AM 53.0781 0.3503 101° East 508 585 37,000  Climbing FlightAware ADS-B
Sat 01:55:21 AM 53.0667 0.4453 101° East 488 562 35,500  Descending FlightAware UK
Sat 01:55:31 AM 53.0624 0.4813 101° East 506 582 37,000  Climbing FlightAware ADS-B
Sat 01:55:51 AM 53.0530 0.5602 101° East 484 557 35,500  Descending FlightAware UK
Sat 01:56:04 AM 53.0475 0.6052 101° East 506 582 37,000  Climbing FlightAware ADS-B
Sat 01:56:21 AM 53.0392 0.6741 101° East 486 559 35,500  Descending FlightAware UK
Sat 01:56:35 AM 53.0330 0.7253 101° East 507 583 37,000 2,000 Climbing FlightAware ADS-B
Sat 01:57:06 AM 53.0187 0.8425 101° East 507 583 37,000 -1,957 Level FlightAware ADS-B
Sat 01:57:21 AM 53.0115 0.9024 101° East 488 562 35,500  Descending FlightAware UK
Sat 01:57:38 AM 53.0034 0.9665 101° East 508 585 37,000  Climbing FlightAware ADS-B
Sat 01:57:57 AM 52.9944 1.0401 101° East 488 562 35,500  Descending FlightAware UK
Sat 01:58:11 AM 52.9881 1.0891 101° East 509 586 37,000  Climbing FlightAware ADS-B
Sat 01:58:28 AM 52.9794 1.1556 101° East 488 562 35,500  Descending FlightAware UK
Sat 01:58:41 AM 52.9737 1.2032 101° East 508 585 37,000  Climbing FlightAware ADS-B
Sat 01:58:58 AM 52.9650 1.2688 101° East 486 559 35,500  Descending FlightAware UK
Sat 01:59:12 AM 52.9588 1.3211 101° East 509 586 37,000  Climbing FlightAware ADS-B
Sat 01:59:28 AM 52.9510 1.3832 101° East 488 562 35,500  Descending FlightAware UK
Sat 01:59:42 AM 52.9440 1.4369 101° East 510 587 37,000  Climbing FlightAware ADS-B
Sat 01:59:58 AM 52.9364 1.4975 101° East 486 559 35,500  Descending FlightAware UK
Sat 02:00:12 AM 52.9291 1.5520 101° East 510 587 37,000  Climbing FlightAware ADS-B
Sat 02:00:28 AM 52.9214 1.6125 101° East 488 562 35,500  Descending FlightAware UK
Sat 02:00:44 AM 52.9135 1.6724 101° East 510 587 37,000  Climbing FlightAware ADS-B
Sat 02:01:04 AM 52.9032 1.7504 101° East 488 562 35,500  Descending FlightAware UK
Sat 02:01:16 AM 52.8975 1.7948 101° East 509 586 37,000  Climbing FlightAware ADS-B
Sat 02:01:34 AM 52.8895 1.8641 101° East 488 562 35,500  Descending FlightAware UK
Sat 02:01:46 AM 52.8860 1.8990 101° East 510 587 37,000  Climbing FlightAware ADS-B
Sat 02:02:04 AM 52.8772 1.9809 101° East 490 564 35,500  Descending FlightAware UK
Sat 02:02:26 AM 52.8683 2.0629 101° East 509 586 37,000  Climbing FlightAware ADS-B
Sat 02:02:46 AM 52.8598 2.1415 101° East 490 564 35,500 -2,368 Descending FlightAware UK
Sat 02:03:04 AM 52.8520 2.2099 101° East 490 564 35,500 3,000 Level FlightAware UK
Sat 02:03:16 AM 52.8480 2.2410 101° East 505 581 37,000  Climbing FlightAware ADS-B
Sat 02:03:34 AM 52.8387 2.3234 101° East 486 559 35,500 -2,500 Descending FlightAware UK
Sat 02:03:52 AM 52.8309 2.3914 101° East 488 562 35,500 4,091 Level FlightAware UK
Sat 02:03:56 AM 52.8310 2.3920 101° East 506 582 37,000  Climbing FlightAware ADS-B
Sat 02:04:16 AM 52.8202 2.4821 101° East 488 562 35,500 -2,368 Descending FlightAware UK
Sat 02:04:34 AM 52.8122 2.5509 101° East 486 559 35,500 4,500 Level FlightAware UK
Sat 02:04:36 AM 52.8130 2.5430 101° East 505 581 37,000  Climbing FlightAware ADS-B
Sat 02:04:52 AM 52.8040 2.6189 101° East 486 559 35,500 -2,647 Descending FlightAware UK
Sat 02:05:10 AM 52.7962 2.6869 101° East 490 564 35,500 3,103 Level FlightAware UK
Sat 02:05:21 AM 52.7920 2.7170 101° East 505 581 37,000  Climbing FlightAware ADS-B
Sat 02:05:40 AM 52.7826 2.7999 101° East 488 562 35,500 -2,432 Descending FlightAware UK
Sat 02:05:58 AM 52.7743 2.8677 102° East 486 559 35,500 4,286 Level FlightAware UK
Sat 02:06:01 AM 52.7740 2.8700 102° East 503 579 37,000  Climbing FlightAware ADS-B
Sat 02:06:22 AM 52.7632 2.9578 102° East 486 559 35,500  Descending FlightAware UK
Sat 02:06:46 AM 52.7540 3.0340 102° East 503 579 37,000  Climbing FlightAware ADS-B
Sat 02:07:10 AM 52.7411 3.1379 102° East 484 557 35,500  Descending FlightAware UK
Sat 02:07:26 AM 52.7350 3.1900 102° East 503 579 37,000  Climbing FlightAware ADS-B
Sat 02:07:41 AM 52.7275 3.2510 102° East 484 557 35,500 -2,813 Descending FlightAware UK
Sat 02:07:58 AM 52.7193 3.3177 101° East 484 557 35,500 3,600 Level FlightAware UK
Sat 02:08:06 AM 52.7160 3.3380 101° East 503 579 37,000  Climbing FlightAware ADS-B
Sat 02:08:23 AM 52.7079 3.4083 101° East 486 559 35,500  Descending FlightAware UK
Sat 02:08:51 AM 52.6960 3.5000 101° East 503 579 37,000  Climbing FlightAware ADS-B
Sat 02:09:11 AM 52.6850 3.5888 101° East 490 564 35,500  Descending FlightAware UK
Sat 02:09:31 AM 52.6760 3.6580 101° East 500 575 37,000  Climbing FlightAware ADS-B
Sat 02:09:47 AM 52.6677 3.7230 101° East 484 557 35,500 -2,647 Descending FlightAware UK
Sat 02:10:05 AM 52.6591 3.7899 102° East 482 555 35,500 3,103 Level FlightAware UK
Sat 02:10:16 AM 52.6550 3.8220 102° East 500 575 37,000 1,957 Climbing FlightAware ADS-B
Sat 02:10:51 AM 52.6380 3.9540 102° East 503 579 37,000 -1,233 Level FlightAware ADS-B
Sat 02:11:29 AM 52.6186 4.1025 102° East 488 562 35,500  Descending FlightAware UK
Sat 02:11:36 AM 52.6170 4.1170 102° East 502 578 37,000  Climbing FlightAware ADS-B
Sat 02:11:53 AM 52.6068 4.1919 102° East 488 562 35,500 -2,571 Descending FlightAware UK
Sat 02:12:11 AM 52.5977 4.2587 103° East 486 559 35,500 3,214 Level FlightAware UK
Sat 02:12:21 AM 52.5940 4.2850 103° East 498 573 37,000 1,800 Climbing FlightAware ADS-B
Sat 02:13:01 AM 52.5740 4.4370 102° East 497 572 37,000  Level FlightAware ADS-B
Sat 02:13:41 AM 52.5540 4.5840 103° East 498 573 37,000 -1,552 Level FlightAware ADS-B
Sat 02:13:59 AM 52.5432 4.6567 103° East 482 555 35,500  Descending FlightAware UK
Sat 02:14:26 AM 52.5320 4.7470 103° East 499 574 37,000  Climbing FlightAware ADS-B
Sat 02:14:53 AM 52.5176 4.8560 103° East 482 555 35,500  Descending FlightAware UK
Sat 02:15:06 AM 52.5110 4.8930 103° East 501 577 37,000  Climbing FlightAware ADS-B
Sat 02:15:35 AM 52.4943 5.0106 103° East 482 555 35,500  Descending FlightAware UK
Sat 02:15:51 AM 52.4880 5.0570 103° East 501 577 37,000 1,607 Climbing FlightAware ADS-B
Sat 02:16:31 AM 52.4670 5.2080 103° East 501 577 37,000 -1,452 Level FlightAware ADS-B
Sat 02:16:53 AM 52.4521 5.2984 103° East 482 555 35,500  Descending FlightAware UK
Sat 02:17:11 AM 52.4460 5.3560 103° East 502 578 37,000 1,429 Climbing FlightAware ADS-B
Sat 02:17:56 AM 52.4210 5.5250 104° East 501 577 37,000 -1,071 Level FlightAware ADS-B
Sat 02:18:35 AM 52.3994 5.6745 104° East 494 568 35,500  Descending FlightAware UK
Sat 02:18:36 AM 52.4000 5.6710 104° East 501 577 37,000  Climbing FlightAware ADS-B
Sat 02:19:11 AM 52.3782 5.8064 104° East 488 562 35,500  Descending FlightAware UK
Sat 02:19:21 AM 52.3770 5.8300 104° East 492 566 37,000 1,800 Climbing FlightAware ADS-B
Sat 02:20:01 AM 52.3550 5.9760 104° East 493 567 37,000  Level FlightAware ADS-B
Sat 02:20:46 AM 52.3300 6.1400 104° East 493 567 37,000  Level FlightAware ADS-B
Sat 02:21:26 AM 52.3090 6.2830 103° East 493 567 37,000  Level FlightAware ADS-B
Sat 02:22:06 AM 52.2870 6.4280 104° East 493 567 37,000  Level FlightAware ADS-B
Sat 02:22:51 AM 52.2620 6.5880 104° East 497 572 37,000  Level FlightAware ADS-B
Sat 02:23:31 AM 52.2390 6.7370 104° East 497 572 37,000  Level FlightAware ADS-B
Sat 02:24:06 AM 52.2190 6.8590 105° East 497 572 37,000  Level FlightAware ADS-B
Sat 02:24:56 AM 52.1900 7.0470 104° East 498 573 37,000  Level FlightAware ADS-B
Sat 02:25:36 AM 52.1660 7.1940 105° East 496 571 37,000  Level FlightAware ADS-B
Sat 02:26:21 AM 52.1400 7.3520 105° East 494 568 37,000  Level FlightAware ADS-B
Sat 02:27:01 AM 52.1170 7.4940 105° East 492 566 37,000  Level FlightAware ADS-B
Sat 02:27:46 AM 52.0920 7.6490 105° East 492 566 37,000  Level FlightAware ADS-B
Sat 02:28:26 AM 52.0700 7.7790 105° East 494 568 37,000  Level FlightAware ADS-B
Sat 02:29:06 AM 52.0450 7.9290 105° East 491 565 37,000  Level FlightAware ADS-B
Sat 02:29:46 AM 52.0190 8.0850 105° East 490 564 37,000  Level FlightAware ADS-B
Sat 02:30:31 AM 51.9920 8.2390 106° East 489 563 37,000  Level FlightAware ADS-B
Sat 02:31:06 AM 51.9710 8.3650 105° East 490 564 37,000  Level FlightAware ADS-B
Sat 02:31:46 AM 51.9490 8.4920 106° East 490 564 37,000  Level FlightAware ADS-B
Sat 02:32:36 AM 51.9150 8.6840 106° East 491 565 37,000  Level FlightAware ADS-B
Sat 02:33:21 AM 51.8880 8.8380 106° East 490 564 37,000  Level FlightAware ADS-B
Sat 02:34:01 AM 51.8630 8.9770 106° East 490 564 37,000  Level FlightAware ADS-B
Sat 02:34:46 AM 51.8340 9.1390 106° East 490 564 37,000  Level FlightAware ADS-B
Sat 02:35:26 AM 51.8090 9.2780 106° East 490 564 37,000  Level FlightAware ADS-B
Sat 02:36:06 AM 51.7850 9.4130 106° East 488 562 37,000  Level FlightAware ADS-B
Sat 02:36:51 AM 51.7540 9.5780 107° East 487 560 37,000  Level FlightAware ADS-B
Sat 02:37:31 AM 51.7300 9.7090 106° East 488 562 37,000  Level FlightAware ADS-B
Sat 02:38:11 AM 51.7030 9.8550 107° East 488 562 37,000  Level FlightAware ADS-B
Sat 02:38:56 AM 51.6740 10.0110 107° East 489 563 37,000  Level FlightAware ADS-B
Sat 02:39:36 AM 51.6470 10.1510 107° East 491 565 37,000  Level FlightAware ADS-B
Sat 02:40:21 AM 51.6170 10.3070 107° East 494 568 37,000  Level FlightAware ADS-B
Sat 02:41:01 AM 51.5910 10.4410 107° East 495 570 37,000  Level FlightAware ADS-B
Sat 02:41:41 AM 51.5640 10.5820 107° East 37,000  Level FlightAware ADS-B
Sat 02:42:26 AM 51.5320 10.7460 107° East 493 567 37,000  Level FlightAware ADS-B
Sat 02:43:06 AM 51.5060 10.8780 108° East 493 567 37,000  Level FlightAware ADS-B
Sat 02:43:46 AM 51.4770 11.0240 108° East 493 567 37,000  Level FlightAware ADS-B
Sat 02:44:31 AM 51.4460 11.1770 108° East 493 567 37,000  Level FlightAware ADS-B
Sat 02:45:11 AM 51.4190 11.3130 108° East 493 567 37,000  Level FlightAware ADS-B
Sat 02:45:56 AM 51.3860 11.4750 108° East 493 567 37,000  Level FlightAware ADS-B
Sat 02:46:41 AM 51.3540 11.6290 108° East 491 565 37,000  Level FlightAware ADS-B
Sat 02:47:21 AM 51.3270 11.7620 108° East 489 563 37,000  Level FlightAware ADS-B
Sat 02:48:01 AM 51.2980 11.9020 108° East 488 562 37,000  Level FlightAware ADS-B
Sat 02:48:46 AM 51.2650 12.0590 109° East 489 563 37,000  Level FlightAware ADS-B
Sat 02:49:26 AM 51.2310 12.1900 112° Southeast 483 556 37,000  Level FlightAware ADS-B
Sat 02:50:11 AM 51.1800 12.3220 122° Southeast 476 548 37,000  Level FlightAware ADS-B
Sat 02:50:51 AM 51.1290 12.4360 125° Southeast 474 545 37,000  Level FlightAware ADS-B
Sat 02:51:31 AM 51.0790 12.5500 125° Southeast 472 543 37,000  Level FlightAware ADS-B
Sat 02:52:11 AM 51.0290 12.6630 125° Southeast 472 543 37,000  Level FlightAware ADS-B
Sat 02:52:56 AM 50.9710 12.7950 125° Southeast 471 542 37,000  Level FlightAware ADS-B
Sat 02:53:41 AM 50.9160 12.9190 125° Southeast 471 542 37,000  Level FlightAware ADS-B
Sat 02:54:21 AM 50.8660 13.0310 125° Southeast 466 536 37,000  Level FlightAware ADS-B
Sat 02:55:01 AM 50.8180 13.1370 126° Southeast 463 533 37,000  Level FlightAware ADS-B
Sat 02:55:41 AM 50.7690 13.2470 125° Southeast 464 534 37,000  Level FlightAware ADS-B
Sat 02:56:26 AM 50.7100 13.3770 126° Southeast 466 536 37,000  Level FlightAware ADS-B
Sat 02:57:06 AM 50.6590 13.4870 126° Southeast 463 533 37,000  Level FlightAware ADS-B
Sat 02:57:51 AM 50.6050 13.6060 126° Southeast 463 533 37,000  Level FlightAware ADS-B
Sat 02:58:31 AM 50.5540 13.7160 126° Southeast 466 536 37,000  Level FlightAware ADS-B
Sat 02:59:16 AM 50.4960 13.8430 126° Southeast 468 539 37,000 424 Level FlightAware ADS-B
Sat 02:59:56 AM 50.4480 13.9460 126° Southeast 475 547 37,600 741 Climbing FlightAware ADS-B
Sat 03:00:37 AM 50.3950 14.0590 126° Southeast 475 547 38,000 296 Climbing FlightAware ADS-B
Sat 03:01:17 AM 50.3450 14.1650 126° Southeast 475 547 38,000  Level FlightAware ADS-B
Sat 03:02:02 AM 50.2810 14.3010 126° Southeast 472 543 38,000  Level FlightAware ADS-B
Sat 03:02:47 AM 50.2250 14.4200 126° Southeast 468 539 38,000  Level FlightAware ADS-B
Sat 03:03:27 AM 50.1740 14.5270 127° Southeast 466 536 38,000  Level FlightAware ADS-B
Sat 03:04:07 AM 50.1220 14.6360 127° Southeast 464 534 38,000  Level FlightAware ADS-B
Sat 03:04:52 AM 50.0660 14.7530 127° Southeast 464 534 38,000  Level FlightAware ADS-B
Sat 03:05:32 AM 50.0130 14.8640 127° Southeast 463 533 38,000 -141 Level FlightAware ADS-B
Sat 03:06:17 AM 49.9570 14.9800 127° Southeast 467 537 37,800 -353 Descending FlightAware ADS-B
Sat 03:06:57 AM 49.9040 15.0900 127° Southeast 467 537 37,500 -450 Descending FlightAware ADS-B
Sat 03:07:37 AM 49.8550 15.1890 127° Southeast 459 528 37,200 -353 Descending FlightAware ADS-B
Sat 03:08:22 AM 49.7960 15.3100 127° Southeast 453 521 37,000 -141 Descending FlightAware ADS-B
Sat 03:09:02 AM 49.7480 15.4090 127° Southeast 457 526 37,000  Level FlightAware ADS-B
Sat 03:09:47 AM 49.6880 15.5300 127° Southeast 461 531 37,000  Level FlightAware ADS-B
Sat 03:10:27 AM 49.6340 15.6400 127° Southeast 463 533 37,000  Level FlightAware ADS-B
Sat 03:11:07 AM 49.5830 15.7420 128° Southeast 463 533 37,000  Level FlightAware ADS-B
Sat 03:11:52 AM 49.5270 15.8550 127° Southeast 462 532 37,000  Level FlightAware ADS-B
Sat 03:12:32 AM 49.4750 15.9580 128° Southeast 463 533 37,000  Level FlightAware ADS-B
Sat 03:13:12 AM 49.4200 16.0670 128° Southeast 463 533 37,000  Level FlightAware ADS-B
Sat 03:13:57 AM 49.3620 16.1820 128° Southeast 463 533 37,000 30 Level FlightAware ADS-B
Sat 03:16:00 AM 49.1835 16.5230 129° Southeast  Level Estimated
Sat 03:17:00 AM 49.0960 16.6884 129° Southeast  Level Estimated
Sat 03:18:00 AM 49.0084 16.8533 129° Southeast  Level Estimated
Sat 03:19:00 AM 48.9204 17.0176 129° Southeast  Level Estimated
Sat 03:20:00 AM 48.8323 17.1813 129° Southeast  Level Estimated
Sat 03:21:00 AM 48.7439 17.3444 129° Southeast  Level Estimated
Sat 03:22:00 AM 48.6553 17.5069 129° Southeast  Level Estimated
Sat 03:23:00 AM 48.5665 17.6689 130° Southeast  Level Estimated
Sat 03:24:00 AM 48.4774 17.8303 130° Southeast  Level Estimated
Sat 03:25:00 AM 48.3881 17.9912 130° Southeast  Level Estimated
Sat 03:26:00 AM 48.2986 18.1514 130° Southeast  Level Estimated
Sat 03:27:00 AM 48.2089 18.3112 130° Southeast  Level Estimated
Sat 03:28:00 AM 48.1189 18.4703 130° Southeast  Level Estimated
Sat 03:29:00 AM 48.0288 18.6289 130° Southeast  Level Estimated
Sat 03:30:00 AM 47.9384 18.7870 130° Southeast  Level Estimated
Sat 03:31:00 AM 47.8478 18.9445 131° Southeast  Level Estimated
Sat 03:32:00 AM 47.7570 19.1014 131° Southeast  Level Estimated
Sat 03:33:00 AM 47.6659 19.2578 131° Southeast  Level Estimated
Sat 03:34:00 AM 47.5747 19.4137 131° Southeast  Level Estimated
Sat 03:35:00 AM 47.4832 19.5690 131° Southeast  Level Estimated
Sat 03:36:00 AM 47.3916 19.7237 131° Southeast  Level Estimated
Sat 03:37:00 AM 47.2997 19.8780 131° Southeast  Level Estimated
Sat 03:38:00 AM 47.2076 20.0317 131° Southeast  Level Estimated
Sat 03:39:00 AM 47.1153 20.1848 131° Southeast  Level Estimated
Sat 03:40:00 AM 47.0229 20.3374 132° Southeast  Level Estimated
Sat 03:41:00 AM 46.9302 20.4895 132° Southeast  Level Estimated
Sat 03:42:00 AM 46.8373 20.6411 132° Southeast  Level Estimated
Sat 03:43:00 AM 46.7442 20.7922 132° Southeast  Level Estimated
Sat 03:44:00 AM 46.6509 20.9427 132° Southeast  Level Estimated
Sat 03:45:00 AM 46.5574 21.0927 132° Southeast  Level Estimated
Sat 03:46:00 AM 46.4637 21.2422 132° Southeast  Level Estimated
Sat 03:47:00 AM 46.3699 21.3912 132° Southeast  Level Estimated
Sat 03:48:00 AM 46.2758 21.5397 132° Southeast  Level Estimated
Sat 03:49:00 AM 46.1815 21.6876 133° Southeast  Level Estimated
Sat 03:50:00 AM 46.0871 21.8351 133° Southeast  Level Estimated
Sat 03:51:00 AM 45.9924 21.9820 133° Southeast  Level Estimated
Sat 03:52:00 AM 45.8976 22.1285 133° Southeast  Level Estimated
Sat 03:53:00 AM 45.8026 22.2744 133° Southeast  Level Estimated
Sat 03:54:00 AM 45.7074 22.4199 133° Southeast  Level Estimated
Sat 03:55:00 AM 45.6120 22.5648 133° Southeast  Level Estimated
Sat 03:56:00 AM 45.5165 22.7093 133° Southeast  Level Estimated
Sat 03:57:00 AM 45.4207 22.8533 133° Southeast  Level Estimated
Sat 03:58:00 AM 45.3248 22.9967 134° Southeast  Level Estimated
Sat 03:59:00 AM 45.2287 23.1397 134° Southeast  Level Estimated
Sat 04:00:00 AM 45.1324 23.2822 134° Southeast  Level Estimated
Sat 04:01:00 AM 45.0360 23.4243 134° Southeast  Level Estimated
Sat 04:02:00 AM 44.9393 23.5658 134° Southeast  Level Estimated
Sat 04:03:00 AM 44.8425 23.7069 134° Southeast  Level Estimated
Sat 04:04:00 AM 44.7455 23.8475 134° Southeast  Level Estimated
Sat 04:05:00 AM 44.6484 23.9876 134° Southeast  Level Estimated
Sat 04:06:00 AM 44.5511 24.1273 134° Southeast  Level Estimated
Sat 04:07:00 AM 44.4536 24.2665 134° Southeast  Level Estimated
Sat 04:08:00 AM 44.3559 24.4053 135° Southeast  Level Estimated
Sat 04:09:00 AM 44.2581 24.5435 135° Southeast  Level Estimated
Sat 04:10:00 AM 44.1601 24.6813 135° Southeast  Level Estimated
Sat 04:11:00 AM 44.0620 24.8187 135° Southeast  Level Estimated
Sat 04:12:00 AM 43.9636 24.9556 135° Southeast  Level Estimated
Sat 04:13:00 AM 43.8651 25.0920 135° Southeast  Level Estimated
Sat 04:14:00 AM 43.7665 25.2280 135° Southeast  Level Estimated
Sat 04:15:00 AM 43.6677 25.3636 135° Southeast  Level Estimated
Sat 04:16:00 AM 43.5687 25.4987 135° Southeast  Level Estimated
Sat 04:17:00 AM 43.4696 25.6333 135° Southeast  Level Estimated
Sat 04:18:00 AM 43.3703 25.7676 135° Southeast  Level Estimated
Sat 04:19:00 AM 43.2709 25.9013 136° Southeast  Level Estimated
Sat 04:20:00 AM 43.1713 26.0347 136° Southeast  Level Estimated
Sat 04:20:02 AM 43.1760 24.9180 136° Southeast 479 551 39,000  Level FlightAware ADS-B
Sat 04:20:42 AM 43.1060 25.0090 136° Southeast 478 550 39,000  Level FlightAware ADS-B
Sat 04:21:27 AM 43.0340 25.1030 136° Southeast 479 551 39,000  Level FlightAware ADS-B
Sat 04:22:07 AM 42.9710 25.1840 137° Southeast 481 554 39,000  Level FlightAware ADS-B
Sat 04:22:47 AM 42.9100 25.2630 136° Southeast 483 556 39,000  Level FlightAware ADS-B
Sat 04:23:32 AM 42.8350 25.3590 137° Southeast 483 556 39,000  Level FlightAware ADS-B
Sat 04:24:12 AM 42.7680 25.4460 136° Southeast 483 556 39,000  Level FlightAware ADS-B
Sat 04:24:52 AM 42.7020 25.5290 137° Southeast 484 557 39,000  Level FlightAware ADS-B
Sat 04:25:37 AM 42.6290 25.6230 137° Southeast 484 557 39,000  Level FlightAware ADS-B
Sat 04:26:17 AM 42.5630 25.7060 137° Southeast 484 557 39,000  Level FlightAware ADS-B
Sat 04:27:02 AM 42.4910 25.7970 137° Southeast 484 557 39,000  Level FlightAware ADS-B
Sat 04:27:42 AM 42.4290 25.8760 137° Southeast 484 557 39,000  Level FlightAware ADS-B
Sat 04:28:22 AM 42.3630 25.9590 137° Southeast 484 557 39,000  Level FlightAware ADS-B
Sat 04:28:57 AM 42.3020 26.0350 137° Southeast 486 559 39,000  Level FlightAware ADS-B
Sat 04:29:37 AM 42.2420 26.1100 137° Southeast 486 559 39,000  Level FlightAware ADS-B
Sat 04:30:32 AM 42.1600 26.2120 137° Southeast 485 558 39,000 -63 Level FlightAware ADS-B
Sat 04:31:12 AM 42.0910 26.2970 138° Southeast 484 557 38,900 -1,200 Descending FlightAware ADS-B
Sat 04:31:57 AM 42.0190 26.3880 137° Southeast 481 554 37,300 -2,400 Descending FlightAware ADS-B
Sat 04:32:27 AM 41.9670 26.4510 138° Southeast 483 556 35,900 -3,225 Descending FlightAware ADS-B
Sat 04:33:17 AM 41.8760 26.5690 136° Southeast 481 554 33,000 -2,716 Descending FlightAware ADS-B
Sat 04:34:02 AM 41.8190 26.6700 127° Southeast 476 548 31,600 -1,680 Descending FlightAware ADS-B
Sat 04:34:57 AM 41.7550 26.7940 125° Southeast 478 550 30,200 -1,326 Descending FlightAware ADS-B
Sat 04:35:37 AM 41.7020 26.8960 125° Southeast 470 541 29,500 -1,271 Descending FlightAware ADS-B
Sat 04:36:22 AM 41.6490 26.9990 125° Southeast 460 529 28,400 -1,835 Descending FlightAware ADS-B
Sat 04:37:02 AM 41.6020 27.0890 125° Southeast 450 518 26,900 -2,147 Descending FlightAware ADS-B
Sat 04:37:57 AM 41.5360 27.2150 125° Southeast 447 514 25,000 -1,579 Descending FlightAware ADS-B
Sat 04:38:37 AM 41.4890 27.3040 125° Southeast 438 504 24,400 -1,129 Descending FlightAware ADS-B
Sat 04:39:22 AM 41.4360 27.4040 125° Southeast 433 498 23,400 -1,267 Descending FlightAware ADS-B
Sat 04:40:07 AM 41.3850 27.5010 125° Southeast 432 497 22,500 -1,200 Descending FlightAware ADS-B
Sat 04:40:42 AM 41.3430 27.5780 126° Southeast 424 488 21,800 -1,059 Descending FlightAware ADS-B
Sat 04:41:32 AM 41.2890 27.6790 125° Southeast 422 486 21,000 -1,467 Descending FlightAware ADS-B
Sat 04:42:12 AM 41.2420 27.7670 125° Southeast 417 480 19,600 -2,000 Descending FlightAware ADS-B
Sat 04:42:47 AM 41.2080 27.8290 126° Southeast 398 458 18,500 -1,950 Descending FlightAware ADS-B
Sat 04:43:32 AM 41.1580 27.9200 126° Southeast 393 452 17,000 -2,047 Descending FlightAware ADS-B
Sat 04:44:12 AM 41.1070 27.9830 137° Southeast 388 447 15,600 -1,976 Descending FlightAware ADS-B
Sat 04:44:57 AM 41.0400 28.0530 142° Southeast 380 437 14,200 -1,533 Descending FlightAware ADS-B
Sat 04:45:42 AM 40.9870 28.1190 137° Southeast 381 438 13,300 -1,520 Descending FlightAware ADS-B
Sat 04:46:12 AM 40.9780 28.1850 100° East 364 419 12,300 -2,057 Descending FlightAware ADS-B
Sat 04:46:52 AM 40.9850 28.2740 84° East 359 413 10,900 -1,350 Descending FlightAware ADS-B
Sat 04:47:32 AM 40.9920 28.3550 83° East 338 389 10,500 -565 Descending FlightAware ADS-B
Sat 04:48:17 AM 41.0000 28.4510 84° East 297 342 10,100 -494 Descending FlightAware ADS-B
Sat 04:48:57 AM 41.0060 28.5200 83° East 269 310 9,800 -771 Descending FlightAware ADS-B
Sat 04:49:27 AM 41.0120 28.5650 80° East 267 307 9,200 -1,200 Descending FlightAware ADS-B
Sat 04:49:52 AM 41.0170 28.6030 80° East 268 308 8,700 -933 Descending FlightAware ADS-B
Sat 04:50:12 AM 41.0220 28.6350 78° East 260 299 8,500 -545 Descending FlightAware ADS-B
Sat 04:50:47 AM 41.0290 28.6870 80° East 242 278 8,200 -738 Descending FlightAware ADS-B
Sat 04:51:17 AM 41.0430 28.7240 63° Northeast 235 270 7,700 -1,200 Descending FlightAware ADS-B
Sat 04:51:37 AM 41.0560 28.7520 58° Northeast 236 272 7,200 -800 Descending FlightAware ADS-B
Sat 04:52:02 AM 41.0700 28.7810 57° Northeast 240 276 7,100 -120 Descending FlightAware ADS-B
Sat 04:52:27 AM 41.0860 28.8170 59° Northeast 237 273 7,100  Level FlightAware ADS-B
Sat 04:52:57 AM 41.1020 28.8520 59° Northeast 236 272 7,100  Level FlightAware ADS-B
Sat 04:53:22 AM 41.1170 28.8830 57° Northeast 234 269 7,100 -267 Level FlightAware ADS-B
Sat 04:53:42 AM 41.1280 28.9080 60° Northeast 234 269 6,900 -923 Descending FlightAware ADS-B
Sat 04:54:27 AM 41.1530 28.9610 58° Northeast 232 267 6,100 -1,108 Descending FlightAware ADS-B
Sat 04:54:47 AM 41.1620 28.9890 67° East 233 268 5,700 -933 Descending FlightAware ADS-B
Sat 04:55:12 AM 41.1640 29.0280 86° East 227 261 5,400 -655 Descending FlightAware ADS-B
Sat 04:55:42 AM 41.1660 29.0650 86° East 211 243 5,100 -655 Descending FlightAware ADS-B
Sat 04:56:07 AM 41.1670 29.0990 88° East 190 219 4,800 -873 Descending FlightAware ADS-B
Sat 04:56:37 AM 41.1670 29.1300 90° East 191 220 4,300 -545 Descending FlightAware ADS-B
Sat 04:57:02 AM 41.1620 29.1570 104° East 191 220 4,300 -1,200 Level FlightAware ADS-B
Sat 04:57:22 AM 41.1350 29.1480 194° South 197 227 3,400 -1,886 Descending FlightAware ADS-B
Sat 04:57:37 AM 41.1220 29.1430 196° South 197 227 3,200 -600 Descending FlightAware ADS-B
Sat 04:57:52 AM 41.1110 29.1260 229° Southwest 185 213 3,100 -150 Descending FlightAware ADS-B
Sat 04:58:17 AM 41.1010 29.1030 240° Southwest 187 215 3,100  Level FlightAware ADS-B
Sat 04:58:47 AM 41.0900 29.0760 242° Southwest 187 215 3,100  Level FlightAware ADS-B
Sat 04:59:07 AM 41.0780 29.0530 235° Southwest 3,100  Level FlightAware ADS-B
Sat 04:59:42 AM 41.0610 29.0160 239° Southwest 188 216 3,100 -240 Level FlightAware ADS-B
Sat 05:00:22 AM 41.0440 28.9800 238° Southwest 193 222 2,800 -277 Descending FlightAware ADS-B
Sat 05:00:47 AM 41.0330 28.9560 239° Southwest 193 222 2,800 -1,080 Level FlightAware ADS-B
Sat 05:01:12 AM 41.0210 28.9290 240° Southwest 165 190 1,900 -1,080 Descending FlightAware ADS-B
Sat 05:01:37 AM 41.0120 28.9090 239° Southwest 165 190 1,900 -554 Level FlightAware ADS-B
Sat 05:02:17 AM 40.9990 28.8810 238° Southwest 142 163 1,300 -1,200 Descending FlightAware ADS-B
Sat 05:02:32 AM 40.9940 28.8710 236° Southwest 142 163 800 -750 Descending FlightAware ADS-B
Sat 05:02:57 AM 40.9860 28.8520 241° Southwest 142 163 800 -400 Level FlightAware ADS-B
Sat 05:03:32 AM 40.9740 28.8270 238° Southwest 142 163 400 -686 Descending FlightAware ADS-B

Login

Don't have an account? Register now (free) for customized features, flight alerts, and more!